Time;durP1;ratioP1;P1;durP2;ratioP2;P2;SDS_P1;SDS_P2;PMS_P1;PMS_P2;Temp;Humidity;BMP_temperature;BMP_pressure;BME280_temperature;BME280_humidity;BME280_pressure;Samples;Min_cycle;Max_cycle;Signal;HPM_P1;HPM_P2
2023/04/25 00:00:23;;;;;;;7.10;5.30;;;9.80;99.90;;;;;;5087917;28;20356;-72
2023/04/25 00:03:08;;;;;;;6.87;5.33;;;9.80;99.90;;;;;;5083904;28;20948;-73
2023/04/25 00:05:56;;;;;;;6.87;5.40;;;9.80;99.90;;;;;;5084127;28;20542;-72
2023/04/25 00:08:43;;;;;;;9.17;5.23;;;9.80;99.90;;;;;;5088605;28;20423;-71
2023/04/25 00:11:30;;;;;;;6.70;5.87;;;9.90;99.90;;;;;;5082941;28;20783;-72
2023/04/25 00:14:16;;;;;;;6.40;5.73;;;9.90;99.90;;;;;;5085047;28;20969;-72
2023/04/25 00:17:04;;;;;;;6.57;5.60;;;9.90;99.90;;;;;;5085322;28;20433;-71
2023/04/25 00:19:49;;;;;;;7.90;6.43;;;9.90;99.90;;;;;;5085950;28;20537;-72
2023/04/25 00:22:37;;;;;;;7.10;6.10;;;9.90;99.90;;;;;;5084302;28;20584;-72
2023/04/25 00:25:24;;;;;;;7.27;5.97;;;9.90;99.90;;;;;;5081578;28;20509;-71
2023/04/25 00:28:09;;;;;;;6.53;5.67;;;10.00;99.90;;;;;;5082095;28;20475;-73
2023/04/25 00:30:55;;;;;;;15.27;6.33;;;10.00;99.90;;;;;;5086337;28;20462;-72
2023/04/25 00:33:41;;;;;;;6.80;5.90;;;9.90;99.90;;;;;;5088515;28;20431;-72
2023/04/25 00:36:27;;;;;;;6.33;5.50;;;9.90;99.90;;;;;;5079597;28;20447;-72
2023/04/25 00:39:13;;;;;;;9.13;6.77;;;9.80;99.90;;;;;;5085112;28;20438;-72
2023/04/25 00:42:01;;;;;;;7.73;5.77;;;9.80;99.90;;;;;;5084061;28;20500;-71
2023/04/25 00:44:48;;;;;;;7.70;5.73;;;9.70;99.90;;;;;;5080532;28;20951;-72
2023/04/25 00:47:34;;;;;;;6.10;5.40;;;9.80;99.90;;;;;;5083686;28;20461;-72
2023/04/25 00:50:20;;;;;;;8.13;6.43;;;9.70;99.90;;;;;;5083225;28;20476;-72
2023/04/25 00:53:06;;;;;;;6.80;6.07;;;9.70;99.90;;;;;;5083836;28;20486;-72
2023/04/25 00:55:52;;;;;;;6.30;5.57;;;9.70;99.90;;;;;;5079500;28;20591;-73
2023/04/25 00:58:41;;;;;;;6.70;5.60;;;9.70;99.90;;;;;;5086057;28;20436;-70
2023/04/25 01:01:26;;;;;;;9.87;6.27;;;9.70;99.90;;;;;;5084735;28;20449;-73
2023/04/25 01:04:12;;;;;;;7.57;5.43;;;9.70;99.90;;;;;;5084333;28;20485;-72
2023/04/25 01:06:58;;;;;;;10.80;6.60;;;9.70;99.90;;;;;;5083057;28;20545;-72
2023/04/25 01:09:44;;;;;;;8.87;7.20;;;9.70;99.90;;;;;;5082790;28;20829;-72
2023/04/25 01:12:30;;;;;;;10.70;6.60;;;9.80;99.90;;;;;;5083233;28;20441;-73
2023/04/25 01:15:17;;;;;;;8.80;7.17;;;9.90;99.90;;;;;;5080457;28;20526;-73
2023/04/25 01:18:03;;;;;;;9.20;6.93;;;9.90;99.90;;;;;;5084439;28;20531;-72
2023/04/25 01:20:51;;;;;;;6.70;5.80;;;9.90;99.90;;;;;;5084278;28;20472;-72
2023/04/25 01:23:39;;;;;;;8.90;7.10;;;9.90;99.90;;;;;;5082377;28;20459;-73
2023/04/25 01:26:26;;;;;;;10.30;7.67;;;9.90;99.90;;;;;;5083123;28;20477;-73
2023/04/25 01:29:12;;;;;;;9.07;6.90;;;9.90;99.90;;;;;;5082932;28;20921;-72
2023/04/25 01:31:58;;;;;;;10.57;7.47;;;9.90;99.90;;;;;;5081584;28;20439;-72
2023/04/25 01:34:44;;;;;;;8.10;6.50;;;9.90;99.90;;;;;;5083234;28;21417;-72
2023/04/25 01:37:30;;;;;;;11.83;6.97;;;9.90;99.90;;;;;;5085946;28;20551;-71
2023/04/25 01:40:18;;;;;;;8.63;6.80;;;9.90;99.90;;;;;;5082057;28;20811;-72
2023/04/25 01:43:04;;;;;;;8.13;6.73;;;9.90;99.90;;;;;;5080240;28;20439;-71
2023/04/25 01:45:51;;;;;;;10.70;8.00;;;9.90;99.90;;;;;;5076932;28;20411;-72
2023/04/25 01:48:36;;;;;;;10.37;6.50;;;9.90;99.90;;;;;;5083623;28;20981;-72
2023/04/25 01:51:22;;;;;;;8.83;7.77;;;9.90;99.90;;;;;;5085309;28;20443;-72
2023/04/25 01:54:08;;;;;;;10.23;6.80;;;9.90;99.90;;;;;;5081303;28;20540;-72
2023/04/25 01:56:58;;;;;;;9.73;6.77;;;9.90;99.90;;;;;;5087334;28;20433;-72
2023/04/25 01:59:44;;;;;;;9.10;7.17;;;9.90;99.90;;;;;;5084598;28;20439;-72
2023/04/25 02:02:30;;;;;;;14.60;8.37;;;9.80;99.90;;;;;;5084323;28;20494;-72
2023/04/25 02:05:16;;;;;;;8.77;7.80;;;9.80;99.90;;;;;;5078286;28;20515;-73
2023/04/25 02:08:01;;;;;;;10.10;8.20;;;9.80;99.90;;;;;;5076376;28;20446;-72
2023/04/25 02:10:47;;;;;;;15.50;8.13;;;9.80;99.90;;;;;;5086685;28;20418;-72
2023/04/25 02:13:34;;;;;;;10.13;7.77;;;9.80;99.90;;;;;;5080748;28;20467;-72
2023/04/25 02:16:20;;;;;;;8.53;7.47;;;9.80;99.90;;;;;;5080421;28;20414;-72
2023/04/25 02:19:06;;;;;;;9.60;7.30;;;9.80;99.90;;;;;;5078681;28;20856;-71
2023/04/25 02:21:52;;;;;;;11.07;7.87;;;9.80;99.90;;;;;;5086509;28;20557;-73
2023/04/25 02:24:37;;;;;;;9.80;8.10;;;9.80;99.90;;;;;;5078886;28;20418;-72
2023/04/25 02:27:23;;;;;;;14.00;8.23;;;9.90;99.90;;;;;;5082090;28;20907;-72
2023/04/25 02:30:11;;;;;;;13.23;8.53;;;9.80;99.90;;;;;;5081314;28;20452;-72
2023/04/25 02:32:56;;;;;;;9.67;8.53;;;9.70;99.90;;;;;;5080333;28;20469;-73
2023/04/25 02:35:42;;;;;;;9.83;8.27;;;9.70;99.90;;;;;;5082153;28;20979;-73
2023/04/25 02:38:27;;;;;;;8.60;7.67;;;9.70;99.90;;;;;;5076844;28;20957;-72
2023/04/25 02:41:13;;;;;;;9.00;7.67;;;9.70;99.90;;;;;;5080472;28;20521;-72
2023/04/25 02:43:59;;;;;;;10.10;8.50;;;9.60;99.90;;;;;;5083471;28;20474;-72
2023/04/25 02:46:46;;;;;;;12.73;8.00;;;9.50;99.90;;;;;;5085865;28;20459;-72
2023/04/25 02:49:32;;;;;;;11.10;8.63;;;9.40;99.90;;;;;;5078534;28;20419;-72
2023/04/25 02:52:18;;;;;;;11.20;9.07;;;9.50;99.90;;;;;;5083079;28;20437;-72
2023/04/25 02:55:03;;;;;;;13.20;10.27;;;9.40;99.90;;;;;;5082494;28;20484;-71
2023/04/25 02:57:49;;;;;;;9.43;8.17;;;9.50;99.90;;;;;;5083757;28;20518;-72
2023/04/25 03:00:35;;;;;;;15.10;9.60;;;9.40;99.90;;;;;;5083275;28;20481;-72
2023/04/25 03:03:22;;;;;;;12.47;9.10;;;9.50;99.90;;;;;;5075104;28;20660;-72
2023/04/25 03:06:08;;;;;;;13.10;9.30;;;9.50;99.90;;;;;;5080706;28;20529;-72
2023/04/25 03:08:53;;;;;;;10.60;8.30;;;9.50;99.90;;;;;;5084333;28;20467;-72
2023/04/25 03:11:40;;;;;;;9.17;8.27;;;9.50;99.90;;;;;;5080399;28;20477;-72
2023/04/25 03:14:25;;;;;;;10.00;7.80;;;9.50;99.90;;;;;;5081767;28;20446;-73
2023/04/25 03:17:11;;;;;;;9.27;8.07;;;9.40;99.90;;;;;;5075426;28;20614;-72
2023/04/25 03:19:58;;;;;;;10.27;8.37;;;9.40;99.90;;;;;;5087448;28;20561;-72
2023/04/25 03:22:44;;;;;;;10.07;8.50;;;9.40;99.90;;;;;;5081771;28;20487;-72
2023/04/25 03:25:30;;;;;;;9.77;8.10;;;9.50;99.90;;;;;;5082347;28;20983;-72
2023/04/25 03:28:16;;;;;;;11.00;8.47;;;9.60;99.90;;;;;;5086775;28;20475;-72
2023/04/25 03:31:01;;;;;;;10.93;8.80;;;9.60;99.90;;;;;;5083150;28;20459;-72
2023/04/25 03:33:47;;;;;;;9.63;7.87;;;9.60;99.90;;;;;;5082804;28;20452;-72
2023/04/25 03:36:34;;;;;;;13.37;8.60;;;9.60;99.90;;;;;;5086964;28;20422;-72
2023/04/25 03:39:20;;;;;;;10.87;8.60;;;9.60;99.90;;;;;;5087697;28;20481;-73
2023/04/25 03:42:05;;;;;;;9.40;8.20;;;9.70;99.90;;;;;;5081898;28;20444;-71
2023/04/25 03:44:52;;;;;;;9.57;8.53;;;9.70;99.90;;;;;;5083048;28;20783;-72
2023/04/25 03:47:38;;;;;;;10.63;8.50;;;9.70;99.90;;;;;;5080801;28;20524;-72
2023/04/25 03:50:24;;;;;;;10.93;8.90;;;9.70;99.90;;;;;;5084319;28;21358;-72
2023/04/25 03:53:11;;;;;;;10.60;8.30;;;9.70;99.90;;;;;;5083898;28;20424;-72
2023/04/25 03:55:57;;;;;;;10.07;8.30;;;9.70;99.90;;;;;;5089896;28;20633;-72
2023/04/25 03:58:42;;;;;;;11.23;8.60;;;9.80;99.90;;;;;;5085623;28;20443;-72
2023/04/25 04:01:29;;;;;;;15.97;9.50;;;9.80;99.90;;;;;;5086935;28;20453;-72
2023/04/25 04:04:14;;;;;;;12.57;9.67;;;9.80;99.90;;;;;;5079389;28;20418;-71
2023/04/25 04:07:00;;;;;;;11.60;8.13;;;9.80;99.90;;;;;;5084099;28;20538;-72
2023/04/25 04:09:46;;;;;;;11.40;9.67;;;9.70;99.90;;;;;;5089863;28;20457;-72
2023/04/25 04:12:32;;;;;;;10.57;9.00;;;9.60;99.90;;;;;;5082370;28;20501;-72
2023/04/25 04:15:17;;;;;;;13.87;10.73;;;9.60;99.90;;;;;;5087265;28;20417;-72
2023/04/25 04:18:03;;;;;;;12.50;9.90;;;9.60;99.90;;;;;;5085535;28;21285;-72
2023/04/25 04:20:49;;;;;;;14.57;10.20;;;9.70;99.90;;;;;;5082667;28;20447;-73
2023/04/25 04:23:35;;;;;;;13.60;10.83;;;9.60;99.90;;;;;;5082850;28;20444;-72
2023/04/25 04:26:24;;;;;;;12.17;10.27;;;9.60;99.90;;;;;;5083353;28;20451;-73
2023/04/25 04:29:10;;;;;;;12.27;9.93;;;9.70;99.90;;;;;;5085344;28;20419;-72
2023/04/25 04:31:56;;;;;;;15.10;10.70;;;9.70;99.90;;;;;;5082263;28;20458;-70
2023/04/25 04:34:42;;;;;;;13.13;10.67;;;9.70;99.90;;;;;;5082141;28;20545;-73
2023/04/25 04:37:27;;;;;;;14.87;11.67;;;9.80;99.90;;;;;;5083082;28;21064;-72
2023/04/25 04:40:15;;;;;;;12.07;10.07;;;9.80;99.90;;;;;;5084873;28;20422;-72
2023/04/25 04:43:02;;;;;;;13.77;11.40;;;9.80;99.90;;;;;;5081288;28;20530;-73
2023/04/25 04:45:47;;;;;;;13.97;11.70;;;9.80;99.90;;;;;;5086907;28;20452;-72
2023/04/25 04:48:33;;;;;;;15.80;12.30;;;9.80;99.90;;;;;;5080589;28;21034;-71
2023/04/25 04:51:20;;;;;;;14.87;12.17;;;9.80;99.90;;;;;;5084372;28;20425;-72
2023/04/25 04:54:06;;;;;;;13.97;11.20;;;9.80;99.90;;;;;;5083136;28;20793;-72
2023/04/25 04:56:52;;;;;;;13.90;11.80;;;9.70;99.90;;;;;;5081130;28;20432;-72
2023/04/25 04:59:39;;;;;;;15.47;11.53;;;9.60;99.90;;;;;;5086484;28;20961;-72
2023/04/25 05:02:25;;;;;;;14.00;11.53;;;9.60;99.90;;;;;;5080957;28;20804;-73
2023/04/25 05:05:11;;;;;;;13.40;11.47;;;9.70;99.90;;;;;;5084018;28;20441;-73
2023/04/25 05:07:57;;;;;;;15.37;11.27;;;9.70;99.90;;;;;;5079027;28;20462;-72
2023/04/25 05:10:42;;;;;;;14.60;12.07;;;9.70;99.90;;;;;;5079678;28;20844;-72
2023/04/25 05:13:28;;;;;;;16.37;12.20;;;9.70;99.90;;;;;;5080910;28;20572;-71
2023/04/25 05:16:15;;;;;;;17.83;12.10;;;9.80;99.90;;;;;;5074599;28;20418;-73
2023/04/25 05:19:01;;;;;;;13.80;11.73;;;9.80;99.90;;;;;;5080219;28;20447;-71
2023/04/25 05:21:47;;;;;;;18.33;12.93;;;9.80;99.90;;;;;;5084058;28;21039;-72
2023/04/25 05:24:32;;;;;;;20.33;14.77;;;9.80;99.90;;;;;;5084507;28;20951;-71
2023/04/25 05:27:19;;;;;;;14.40;12.50;;;9.80;99.90;;;;;;5082573;28;20483;-72
2023/04/25 05:30:06;;;;;;;18.07;12.37;;;9.80;99.90;;;;;;5082363;28;20452;-75
2023/04/25 05:32:54;;;;;;;13.23;10.63;;;9.90;99.90;;;;;;5084417;28;20818;-72
2023/04/25 05:35:39;;;;;;;14.17;12.53;;;10.00;99.90;;;;;;5082884;28;20814;-71
2023/04/25 05:38:25;;;;;;;16.23;13.03;;;10.00;99.90;;;;;;5085783;28;20457;-72
2023/04/25 05:41:11;;;;;;;16.47;12.23;;;10.00;99.90;;;;;;5081439;28;20424;-71
2023/04/25 05:43:56;;;;;;;13.90;12.07;;;10.10;99.90;;;;;;5077740;28;20429;-73
2023/04/25 05:46:42;;;;;;;15.73;12.90;;;10.10;99.90;;;;;;5085288;28;22831;-72
2023/04/25 05:49:29;;;;;;;17.60;13.30;;;10.00;99.90;;;;;;5078372;28;20831;-71
2023/04/25 05:52:15;;;;;;;18.23;13.60;;;10.10;99.90;;;;;;5078909;28;20422;-72
2023/04/25 05:55:01;;;;;;;16.90;13.33;;;10.00;99.90;;;;;;5078461;28;20415;-72
2023/04/25 05:57:47;;;;;;;23.80;13.83;;;9.90;99.90;;;;;;5080356;28;20833;-72
2023/04/25 06:00:32;;;;;;;18.30;13.50;;;10.00;99.90;;;;;;5082447;28;20951;-72
2023/04/25 06:03:18;;;;;;;17.10;13.17;;;10.00;99.90;;;;;;5083584;28;20457;-72
2023/04/25 06:06:06;;;;;;;16.30;12.27;;;10.10;99.90;;;;;;5082023;28;20462;-72
2023/04/25 06:08:51;;;;;;;22.10;12.47;;;10.10;99.90;;;;;;5079233;28;20418;-71
2023/04/25 06:11:37;;;;;;;15.17;12.87;;;10.10;99.90;;;;;;5078352;28;20437;-71
2023/04/25 06:14:23;;;;;;;18.40;12.57;;;10.20;99.90;;;;;;5083540;28;20427;-71
2023/04/25 06:17:09;;;;;;;18.90;11.80;;;10.10;99.90;;;;;;5082614;28;20450;-72
2023/04/25 06:19:54;;;;;;;12.20;10.57;;;10.20;99.90;;;;;;5082297;28;20569;-73
2023/04/25 06:22:41;;;;;;;16.80;12.20;;;10.30;99.90;;;;;;5084981;28;20483;-71
2023/04/25 06:25:27;;;;;;;11.70;10.50;;;10.30;99.90;;;;;;5083802;28;20947;-71
2023/04/25 06:28:13;;;;;;;13.37;10.43;;;10.20;99.90;;;;;;5081443;28;20472;-72
2023/04/25 06:30:58;;;;;;;11.93;10.30;;;10.20;99.90;;;;;;5079458;28;20566;-72
2023/04/25 06:33:44;;;;;;;12.80;9.30;;;10.10;99.90;;;;;;5081693;28;20428;-72
2023/04/25 06:36:30;;;;;;;10.53;7.20;;;10.10;99.90;;;;;;5082030;28;21292;-75
2023/04/25 06:39:17;;;;;;;11.47;8.07;;;10.10;99.90;;;;;;5084941;28;20914;-71
2023/04/25 06:42:02;;;;;;;17.23;8.80;;;10.00;99.90;;;;;;5080975;28;20479;-73
2023/04/25 06:44:48;;;;;;;16.63;8.93;;;10.10;99.90;;;;;;5084320;28;20960;-74
2023/04/25 06:47:34;;;;;;;15.27;8.70;;;10.10;99.90;;;;;;5079570;28;20804;-72
2023/04/25 06:50:19;;;;;;;12.20;8.43;;;10.10;99.90;;;;;;5079477;28;20423;-72
2023/04/25 06:53:05;;;;;;;13.63;7.60;;;10.10;99.90;;;;;;5086997;28;20561;-73
2023/04/25 06:55:52;;;;;;;14.27;8.07;;;10.10;99.90;;;;;;5091891;28;20440;-71
2023/04/25 06:58:37;;;;;;;12.07;8.70;;;10.20;99.90;;;;;;5086713;28;20603;-71
2023/04/25 07:01:23;;;;;;;10.53;7.90;;;10.20;99.90;;;;;;5082541;28;20427;-72
2023/04/25 07:04:08;;;;;;;9.80;6.20;;;10.10;99.90;;;;;;5084865;28;20551;-70
2023/04/25 07:06:54;;;;;;;14.70;7.17;;;10.20;99.90;;;;;;5084677;28;20453;-71
2023/04/25 07:09:40;;;;;;;9.30;6.60;;;10.20;99.90;;;;;;5079655;28;20422;-71
2023/04/25 07:12:27;;;;;;;14.90;6.40;;;10.30;99.90;;;;;;5083977;28;20953;-72
2023/04/25 07:15:13;;;;;;;9.97;5.80;;;10.30;99.90;;;;;;5080978;28;20444;-72
2023/04/25 07:17:59;;;;;;;8.23;5.20;;;10.40;99.90;;;;;;5082830;28;20464;-71
2023/04/25 07:20:44;;;;;;;8.57;4.50;;;10.40;99.90;;;;;;5082597;28;20574;-72
2023/04/25 07:23:30;;;;;;;16.77;4.73;;;10.40;99.90;;;;;;5085039;28;20438;-75
2023/04/25 07:26:15;;;;;;;8.63;5.10;;;10.50;99.90;;;;;;5088875;28;21152;-71
2023/04/25 07:29:02;;;;;;;9.83;5.20;;;10.50;99.90;;;;;;5085580;28;20451;-70
2023/04/25 07:31:48;;;;;;;7.43;4.87;;;10.50;99.90;;;;;;5087819;28;20435;-71
2023/04/25 07:34:37;;;;;;;16.43;5.00;;;10.50;99.90;;;;;;5085662;28;20438;-71
2023/04/25 07:37:22;;;;;;;7.90;4.53;;;10.40;99.90;;;;;;5082994;28;20567;-72
2023/04/25 07:40:09;;;;;;;7.60;4.10;;;10.40;99.90;;;;;;5083471;28;20459;-72
2023/04/25 07:42:56;;;;;;;11.00;4.40;;;10.50;99.90;;;;;;5086914;28;20849;-71
2023/04/25 07:45:44;;;;;;;12.70;4.87;;;10.40;99.90;;;;;;5078415;28;20921;-71
2023/04/25 07:48:29;;;;;;;11.30;5.40;;;10.40;99.90;;;;;;5078958;28;20541;-70
2023/04/25 07:51:15;;;;;;;6.57;3.93;;;10.50;99.90;;;;;;5082328;28;20783;-71
2023/04/25 07:54:01;;;;;;;12.23;4.67;;;10.50;99.90;;;;;;5083382;28;20961;-74
2023/04/25 07:56:47;;;;;;;8.90;4.80;;;10.50;99.90;;;;;;5083361;28;20558;-73
2023/04/25 07:59:32;;;;;;;9.00;4.70;;;10.50;99.90;;;;;;5086071;28;20415;-73
2023/04/25 08:02:19;;;;;;;8.07;4.03;;;10.60;99.90;;;;;;5085246;28;20468;-71
2023/04/25 08:05:07;;;;;;;9.43;4.67;;;10.60;99.90;;;;;;5086985;28;20837;-71
2023/04/25 08:07:53;;;;;;;9.43;4.97;;;10.60;99.90;;;;;;5076306;28;20472;-73
2023/04/25 08:10:39;;;;;;;6.63;3.70;;;10.60;99.90;;;;;;5085141;28;20549;-72
2023/04/25 08:13:24;;;;;;;11.30;3.60;;;10.60;99.90;;;;;;5078885;28;20582;-72
2023/04/25 08:16:10;;;;;;;17.27;4.30;;;10.70;99.90;;;;;;5081735;28;20407;-72
2023/04/25 08:18:57;;;;;;;11.37;5.93;;;10.80;99.90;;;;;;5081596;28;20999;-72
2023/04/25 08:21:43;;;;;;;10.80;4.67;;;10.70;99.90;;;;;;5082722;28;20528;-75
2023/04/25 08:24:28;;;;;;;12.87;3.80;;;10.70;99.90;;;;;;5076668;28;20432;-71
2023/04/25 08:27:14;;;;;;;7.97;4.27;;;10.80;99.90;;;;;;5084062;28;20634;-72
2023/04/25 08:30:00;;;;;;;9.43;4.70;;;11.00;99.90;;;;;;5080928;28;20448;-72
2023/04/25 08:32:46;;;;;;;10.07;4.13;;;11.00;99.90;;;;;;5085189;28;20437;-73
2023/04/25 08:35:33;;;;;;;9.47;5.07;;;10.80;99.90;;;;;;5084022;28;20731;-74
2023/04/25 08:38:20;;;;;;;6.60;4.20;;;10.80;99.90;;;;;;5076796;28;20463;-72
2023/04/25 08:41:07;;;;;;;9.83;4.67;;;10.90;99.90;;;;;;5080229;28;20410;-72
2023/04/25 08:43:54;;;;;;;10.63;4.60;;;11.00;99.90;;;;;;5083428;28;20985;-72
2023/04/25 08:46:42;;;;;;;6.47;4.20;;;11.20;99.90;;;;;;5081320;28;20477;-71
2023/04/25 08:49:27;;;;;;;11.00;5.20;;;11.20;99.90;;;;;;5080281;28;20477;-72
2023/04/25 08:52:15;;;;;;;6.67;4.20;;;11.30;99.90;;;;;;5079810;28;20493;-72
2023/04/25 08:55:02;;;;;;;9.87;5.00;;;11.30;99.90;;;;;;5078356;28;20599;-74
2023/04/25 08:57:49;;;;;;;18.90;5.57;;;11.20;99.90;;;;;;5080002;28;20430;-74
2023/04/25 09:00:34;;;;;;;16.53;5.10;;;11.20;99.90;;;;;;5075210;28;20431;-71
2023/04/25 09:03:20;;;;;;;13.90;6.20;;;11.10;99.90;;;;;;5080509;28;20449;-72
2023/04/25 09:06:06;;;;;;;10.27;5.30;;;11.10;99.90;;;;;;5081323;28;20449;-72
2023/04/25 09:08:53;;;;;;;13.63;6.23;;;11.00;99.90;;;;;;5077764;28;21245;-72
2023/04/25 09:11:40;;;;;;;12.03;6.47;;;11.20;99.90;;;;;;5082893;28;20415;-72
2023/04/25 09:14:27;;;;;;;11.80;5.23;;;11.20;99.90;;;;;;5081109;28;20460;-72
2023/04/25 09:17:13;;;;;;;16.37;6.20;;;11.20;99.90;;;;;;5081116;28;20999;-75
2023/04/25 09:20:08;;;;;;;15.53;7.17;;;11.20;99.90;;;;;;5083170;28;20474;-71
2023/04/25 09:23:03;;;;;;;13.70;6.43;;;11.10;99.90;;;;;;5083681;28;20488;-72
2023/04/25 09:25:51;;;;;;;14.43;6.23;;;11.00;99.90;;;;;;5078694;28;20590;-72
2023/04/25 09:28:37;;;;;;;23.70;6.70;;;11.10;99.90;;;;;;5085480;28;20614;-72
2023/04/25 09:31:24;;;;;;;14.83;6.03;;;11.30;99.90;;;;;;5082818;28;20443;-71
2023/04/25 09:34:15;;;;;;;12.33;5.20;;;11.30;99.90;;;;;;5074006;28;20466;-72
2023/04/25 09:37:02;;;;;;;10.77;6.10;;;11.20;99.90;;;;;;5078624;28;20434;-71
2023/04/25 09:39:49;;;;;;;8.10;5.00;;;11.10;99.90;;;;;;5078913;28;20440;-71
2023/04/25 09:42:36;;;;;;;9.87;5.90;;;11.20;99.90;;;;;;5080815;28;20468;-74
2023/04/25 09:45:22;;;;;;;13.87;6.03;;;11.40;99.90;;;;;;5080117;28;20444;-71
2023/04/25 09:48:07;;;;;;;9.07;5.17;;;11.40;99.90;;;;;;5076093;28;20438;-76
2023/04/25 09:51:08;;;;;;;13.10;5.20;;;11.50;99.90;;;;;;5087669;28;20483;-72
2023/04/25 09:53:54;;;;;;;8.63;5.73;;;11.60;99.90;;;;;;5088475;28;20437;-72
2023/04/25 09:56:40;;;;;;;9.97;4.87;;;11.80;99.90;;;;;;5078179;28;20450;-71
2023/04/25 09:59:29;;;;;;;9.00;5.13;;;11.90;99.90;;;;;;5078577;28;20984;-73
2023/04/25 10:02:19;;;;;;;11.50;6.47;;;11.80;99.90;;;;;;5083865;28;20443;-72
2023/04/25 10:05:08;;;;;;;11.77;5.97;;;11.80;99.90;;;;;;5081360;28;20761;-71
2023/04/25 10:07:55;;;;;;;14.93;6.30;;;11.80;99.90;;;;;;5076353;28;20472;-71
2023/04/25 10:10:42;;;;;;;8.87;5.80;;;12.10;99.90;;;;;;5081792;28;20424;-71
2023/04/25 10:13:29;;;;;;;8.90;6.43;;;12.30;99.90;;;;;;5078955;28;20460;-72
2023/04/25 10:16:17;;;;;;;12.33;5.33;;;12.60;99.90;;;;;;5076370;28;20449;-71
2023/04/25 10:19:03;;;;;;;10.77;4.87;;;12.80;95.70;;;;;;5082453;28;20448;-71
2023/04/25 10:21:53;;;;;;;7.60;4.80;;;12.90;95.00;;;;;;5082993;28;20452;-70
2023/04/25 10:24:40;;;;;;;11.87;5.00;;;12.80;84.40;;;;;;5077977;28;20646;-71
2023/04/25 10:27:28;;;;;;;12.23;5.27;;;12.70;88.10;;;;;;5080363;28;20525;-74
2023/04/25 10:30:16;;;;;;;11.00;5.03;;;12.60;90.70;;;;;;5083420;28;20451;-74
2023/04/25 10:33:03;;;;;;;17.20;8.20;;;12.50;86.70;;;;;;5080698;28;20553;-72
2023/04/25 10:35:48;;;;;;;7.87;5.00;;;12.60;91.20;;;;;;5080433;28;20411;-72
2023/04/25 10:38:34;;;;;;;19.57;4.97;;;12.60;88.70;;;;;;5077830;28;20442;-72
2023/04/25 10:41:22;;;;;;;13.83;4.80;;;12.40;83.90;;;;;;5073832;28;20428;-72
2023/04/25 10:44:09;;;;;;;7.77;4.57;;;12.40;86.80;;;;;;5081894;28;21326;-71
2023/04/25 10:46:57;;;;;;;7.30;4.23;;;12.30;83.20;;;;;;5081967;28;20800;-72
2023/04/25 10:49:44;;;;;;;12.40;5.03;;;12.10;81.40;;;;;;5072076;28;20572;-72
2023/04/25 10:52:30;;;;;;;13.43;5.10;;;12.00;82.70;;;;;;5084354;28;20442;-74
2023/04/25 10:55:16;;;;;;;18.00;5.33;;;11.80;81.30;;;;;;5080192;28;20443;-72
2023/04/25 10:58:02;;;;;;;9.50;3.93;;;11.70;80.50;;;;;;5078147;28;20448;-72
2023/04/25 11:00:48;;;;;;;12.23;5.03;;;11.60;82.70;;;;;;5082762;28;20537;-71
2023/04/25 11:03:38;;;;;;;12.40;4.20;;;11.60;85.60;;;;;;5077968;28;20508;-72
2023/04/25 11:06:36;;;;;;;8.57;4.00;;;11.60;81.60;;;;;;5081432;28;20532;-72
2023/04/25 11:09:25;;;;;;;9.03;3.80;;;11.70;80.10;;;;;;5084953;28;20428;-72
2023/04/25 11:12:12;;;;;;;9.63;3.60;;;11.80;78.10;;;;;;5080031;28;20423;-72
2023/04/25 11:15:02;;;;;;;5.00;2.90;;;11.90;79.90;;;;;;5076476;28;20447;-72
2023/04/25 11:17:47;;;;;;;6.90;3.63;;;12.10;80.70;;;;;;5082450;28;20471;-72
2023/04/25 11:20:33;;;;;;;12.13;4.73;;;12.00;80.60;;;;;;5084889;28;20466;-72
2023/04/25 11:23:20;;;;;;;8.00;3.97;;;11.80;78.50;;;;;;5083384;28;20459;-72
2023/04/25 11:26:06;;;;;;;9.60;3.10;;;11.70;81.10;;;;;;5077590;28;20553;-72
2023/04/25 11:28:52;;;;;;;7.00;3.80;;;11.60;81.10;;;;;;5083747;28;20419;-72
2023/04/25 11:31:37;;;;;;;12.07;3.90;;;11.50;80.10;;;;;;5081351;28;21066;-72
2023/04/25 11:34:24;;;;;;;7.37;4.00;;;11.50;80.20;;;;;;5078856;28;20976;-72
2023/04/25 11:37:11;;;;;;;8.03;3.87;;;11.50;80.40;;;;;;5084115;28;20442;-72
2023/04/25 11:39:58;;;;;;;10.93;3.30;;;11.50;82.40;;;;;;5087934;28;20427;-72
2023/04/25 11:42:46;;;;;;;7.30;3.70;;;11.50;80.30;;;;;;5085737;28;20414;-72
2023/04/25 11:45:32;;;;;;;6.50;4.00;;;11.60;81.50;;;;;;5083717;28;20497;-72
2023/04/25 11:48:18;;;;;;;5.90;3.60;;;11.80;79.50;;;;;;5085426;28;21064;-72
2023/04/25 11:51:05;;;;;;;11.60;4.27;;;11.90;78.50;;;;;;5085375;28;20445;-72
2023/04/25 11:53:51;;;;;;;4.77;3.03;;;12.00;78.40;;;;;;5078313;28;20451;-70
2023/04/25 11:56:38;;;;;;;10.23;4.10;;;12.40;80.70;;;;;;5082273;28;20442;-72
2023/04/25 11:59:25;;;;;;;7.53;4.27;;;12.70;78.00;;;;;;5078163;28;20448;-72
2023/04/25 12:02:25;;;;;;;14.40;3.87;;;12.90;76.30;;;;;;5079355;28;20930;-72
2023/04/25 12:05:11;;;;;;;10.53;4.10;;;13.00;75.80;;;;;;5074513;28;20981;-72
2023/04/25 12:07:57;;;;;;;6.33;4.40;;;13.00;73.00;;;;;;5083398;28;20842;-71
2023/04/25 12:10:46;;;;;;;6.13;3.40;;;13.00;71.80;;;;;;5080082;28;20460;-71
2023/04/25 12:13:33;;;;;;;9.20;4.40;;;12.80;71.80;;;;;;5080096;28;20982;-71
2023/04/25 12:16:18;;;;;;;8.57;4.20;;;12.70;69.10;;;;;;5081158;28;20533;-71
2023/04/25 12:19:04;;;;;;;6.40;4.30;;;12.60;71.20;;;;;;5077254;28;20428;-72
2023/04/25 12:21:51;;;;;;;7.50;4.20;;;12.70;70.90;;;;;;5082112;28;20445;-72
2023/04/25 12:24:36;;;;;;;4.80;3.67;;;12.70;71.70;;;;;;5085211;28;20502;-71
2023/04/25 12:27:22;;;;;;;5.50;3.73;;;12.80;70.40;;;;;;5088100;28;20458;-72
2023/04/25 12:30:11;;;;;;;6.43;4.17;;;12.80;67.00;;;;;;5082403;28;20458;-72
2023/04/25 12:32:56;;;;;;;6.43;4.30;;;12.90;67.60;;;;;;5083287;28;21205;-72
2023/04/25 12:35:42;;;;;;;10.33;4.77;;;12.80;64.00;;;;;;5085266;28;20415;-72
2023/04/25 12:38:30;;;;;;;6.70;4.30;;;12.70;65.30;;;;;;5088479;28;20518;-72
2023/04/25 12:41:15;;;;;;;7.43;4.60;;;12.70;67.10;;;;;;5082695;28;20419;-72
2023/04/25 12:44:01;;;;;;;11.30;4.40;;;12.90;68.80;;;;;;5087638;28;20865;-72
2023/04/25 12:46:49;;;;;;;8.10;4.37;;;13.00;64.10;;;;;;5081187;28;20798;-72
2023/04/25 12:49:35;;;;;;;6.60;4.90;;;13.20;67.30;;;;;;5073522;28;20823;-72
2023/04/25 12:52:21;;;;;;;8.83;4.97;;;13.20;67.60;;;;;;5086453;28;20482;-72
2023/04/25 12:55:07;;;;;;;12.73;4.90;;;13.20;63.20;;;;;;5082920;28;20431;-72
2023/04/25 12:57:53;;;;;;;6.30;4.10;;;13.00;60.10;;;;;;5089474;28;20439;-72
2023/04/25 13:00:38;;;;;;;8.40;5.00;;;13.00;65.50;;;;;;5078570;28;20490;-72
2023/04/25 13:03:26;;;;;;;8.40;4.77;;;13.00;61.00;;;;;;5084499;28;20443;-72
2023/04/25 13:06:12;;;;;;;9.03;4.97;;;12.90;60.00;;;;;;5083688;28;20805;-71
2023/04/25 13:08:58;;;;;;;6.60;4.63;;;13.00;62.20;;;;;;5081352;28;20887;-70
2023/04/25 13:11:44;;;;;;;11.80;5.40;;;13.10;63.20;;;;;;5078420;28;20822;-72
2023/04/25 13:14:30;;;;;;;10.70;4.67;;;13.30;62.50;;;;;;5071063;28;20432;-72
2023/04/25 13:17:16;;;;;;;10.40;5.00;;;13.60;62.80;;;;;;5081581;28;20441;-72
2023/04/25 13:20:04;;;;;;;9.53;4.73;;;13.80;62.70;;;;;;5080443;28;20573;-72
2023/04/25 13:22:50;;;;;;;9.37;4.97;;;13.80;61.20;;;;;;5079583;28;20427;-72
2023/04/25 13:25:35;;;;;;;11.10;5.00;;;13.80;59.10;;;;;;5079462;28;20450;-72
2023/04/25 13:28:21;;;;;;;12.50;4.87;;;13.70;60.90;;;;;;5075647;28;20446;-72
2023/04/25 13:31:07;;;;;;;6.27;4.43;;;13.50;60.50;;;;;;5081958;28;20411;-72
2023/04/25 13:33:52;;;;;;;13.30;5.20;;;13.30;58.20;;;;;;5083966;28;20445;-71
2023/04/25 13:36:40;;;;;;;10.50;5.40;;;13.10;58.50;;;;;;5078900;28;20599;-71
2023/04/25 13:39:25;;;;;;;9.87;5.70;;;13.10;60.50;;;;;;5080823;28;20423;-72
2023/04/25 13:42:11;;;;;;;11.10;5.80;;;13.30;60.80;;;;;;5075308;28;20457;-72
2023/04/25 13:44:57;;;;;;;8.30;4.73;;;13.90;59.40;;;;;;5075868;28;20490;-72
2023/04/25 13:47:42;;;;;;;8.40;4.80;;;14.50;54.00;;;;;;5078980;28;21261;-72
2023/04/25 13:50:28;;;;;;;18.93;4.80;;;14.80;51.80;;;;;;5075181;28;20449;-70
2023/04/25 13:53:15;;;;;;;8.37;4.83;;;14.60;44.80;;;;;;5079305;28;20809;-73
2023/04/25 13:56:01;;;;;;;12.00;4.90;;;14.30;46.30;;;;;;5082732;28;20992;-73
2023/04/25 13:58:47;;;;;;;11.60;5.30;;;13.90;46.80;;;;;;5079032;28;20483;-72
2023/04/25 14:01:34;;;;;;;10.40;5.10;;;13.70;47.80;;;;;;5077871;28;20788;-71
2023/04/25 14:04:19;;;;;;;9.03;5.60;;;13.50;48.30;;;;;;5076382;28;20484;-71
2023/04/25 14:07:06;;;;;;;6.83;4.40;;;13.40;48.60;;;;;;5075018;28;20955;-72
2023/04/25 14:09:52;;;;;;;7.33;4.47;;;13.30;49.50;;;;;;5077805;28;20959;-72
2023/04/25 14:12:38;;;;;;;8.90;4.60;;;13.30;52.60;;;;;;5077706;28;20460;-71
2023/04/25 14:15:25;;;;;;;10.70;5.30;;;13.40;52.50;;;;;;5081585;28;20990;-72
2023/04/25 14:18:11;;;;;;;17.10;5.77;;;13.30;51.40;;;;;;5078069;28;20465;-71
2023/04/25 14:20:56;;;;;;;11.73;4.90;;;13.30;52.50;;;;;;5080246;28;20447;-72